Time;durP1;ratioP1;P1;durP2;ratioP2;P2;SDS_P1;SDS_P2;PMS_P1;PMS_P2;Temp;Humidity;BMP_temperature;BMP_pressure;BME280_temperature;BME280_humidity;BME280_pressure;Samples;Min_cycle;Max_cycle;Signal;HPM_P1;HPM_P2
2023/11/14 00:02:08;;;;;;;;;3.75;3.00;;;;;15.23;84.17;100707.63;5074222;27;45421;-65
2023/11/14 00:04:34;;;;;;;;;3.25;2.00;;;;;15.22;84.15;100705.91;5062557;28;45386;-65
2023/11/14 00:07:02;;;;;;;;;3.00;1.25;;;;;15.23;84.31;100699.56;5068945;27;45391;-65
2023/11/14 00:09:31;;;;;;;;;4.25;2.00;;;;;15.25;84.43;100708.44;5074727;28;45548;-65
2023/11/14 00:11:57;;;;;;;;;4.00;2.00;;;;;15.25;83.84;100710.22;5061260;28;45411;-65
2023/11/14 00:14:24;;;;;;;;;3.75;3.00;;;;;15.22;83.89;100710.38;5066972;28;45345;-65
2023/11/14 00:16:49;;;;;;;;;2.75;2.00;;;;;15.19;84.06;100716.81;5061525;28;45410;-65
2023/11/14 00:19:15;;;;;;;;;2.75;2.00;;;;;15.11;84.03;100698.38;5062285;28;61434;-65
2023/11/14 00:21:40;;;;;;;;;2.00;2.00;;;;;15.17;84.04;100698.06;5065972;28;45325;-65
2023/11/14 00:24:06;;;;;;;;;1.50;1.50;;;;;15.12;83.94;100692.06;5078343;27;45333;-65
2023/11/14 00:26:32;;;;;;;;;3.00;0.50;;;;;15.14;84.20;100695.53;5061357;28;46178;-65
2023/11/14 00:28:58;;;;;;;;;2.75;1.25;;;;;15.12;83.92;100685.81;5064763;28;45381;-65
2023/11/14 00:31:24;;;;;;;;;3.00;1.00;;;;;15.10;83.83;100685.91;5077837;27;45401;-65
2023/11/14 00:33:49;;;;;;;;;1.00;1.00;;;;;15.09;84.13;100697.59;5060942;28;45549;-65
2023/11/14 00:36:15;;;;;;;;;2.00;2.00;;;;;15.08;84.12;100713.81;5059572;28;46438;-65
2023/11/14 00:38:40;;;;;;;;;3.50;2.00;;;;;15.04;84.28;100707.72;5062912;28;45539;-65
2023/11/14 00:41:06;;;;;;;;;2.00;2.00;;;;;15.00;84.03;100700.75;5071912;28;56165;-65
2023/11/14 00:43:31;;;;;;;;;8.50;2.75;;;;;14.99;84.19;100715.16;5070779;28;45558;-65
2023/11/14 00:45:57;;;;;;;;;3.25;1.00;;;;;14.99;84.54;100713.31;5071998;27;45721;-65
2023/11/14 00:48:22;;;;;;;;;4.50;2.00;;;;;14.99;84.42;100712.47;5068459;28;45409;-65
2023/11/14 00:50:48;;;;;;;;;4.50;1.00;;;;;14.96;84.35;100696.50;5060143;28;65716;-65
2023/11/14 00:53:13;;;;;;;;;3.25;2.00;;;;;14.89;84.27;100685.19;5060280;28;55280;-65
2023/11/14 00:55:38;;;;;;;;;5.50;2.00;;;;;14.93;84.01;100688.59;5062154;27;46086;-65
2023/11/14 00:58:04;;;;;;;;;0.75;0.00;;;;;14.94;84.15;100703.78;5067258;28;50332;-65
2023/11/14 01:00:29;;;;;;;;;4.00;2.00;;;;;14.95;84.15;100700.13;5071890;28;67337;-65
2023/11/14 01:03:00;;;;;;;;;2.25;1.75;;;;;14.94;84.08;100727.97;5061263;28;48271;-65
2023/11/14 01:05:26;;;;;;;;;3.25;2.00;;;;;14.92;84.14;100727.19;5072653;27;46062;-65
2023/11/14 01:07:52;;;;;;;;;2.00;1.75;;;;;14.85;84.04;100723.94;5062907;28;45339;-65
2023/11/14 01:10:17;;;;;;;;;4.00;2.00;;;;;14.85;84.58;100736.47;5060667;28;45361;-65
2023/11/14 01:12:43;;;;;;;;;5.25;1.50;;;;;14.86;84.47;100738.22;5073650;28;49878;-65
2023/11/14 01:15:08;;;;;;;;;1.75;1.25;;;;;14.86;84.29;100739.09;5059921;28;52797;-65
2023/11/14 01:17:34;;;;;;;;;4.00;1.50;;;;;14.85;84.44;100752.59;5059947;28;45383;-65
2023/11/14 01:19:59;;;;;;;;;3.75;2.50;;;;;14.83;84.00;100763.44;5060612;28;45502;-65
2023/11/14 01:22:24;;;;;;;;;5.75;2.00;;;;;14.81;83.86;100760.81;5072482;28;45317;-65
2023/11/14 01:24:50;;;;;;;;;4.50;2.00;;;;;14.84;84.18;100777.75;5071887;27;46085;-65
2023/11/14 01:27:15;;;;;;;;;4.75;2.25;;;;;14.82;84.19;100794.81;5059528;28;47451;-65
2023/11/14 01:29:41;;;;;;;;;4.50;1.50;;;;;14.81;84.37;100795.75;5062889;28;45360;-65
2023/11/14 01:32:06;;;;;;;;;3.75;2.00;;;;;14.80;84.45;100802.09;5074772;28;45510;-65
2023/11/14 01:34:32;;;;;;;;;3.00;2.75;;;;;14.78;84.01;100790.53;5070608;27;70330;-65
2023/11/14 01:36:58;;;;;;;;;4.50;2.75;;;;;14.80;84.26;100790.44;5060089;28;45294;-65
2023/11/14 01:39:25;;;;;;;;;2.25;2.25;;;;;14.80;84.23;100795.81;5068533;28;45375;-65
2023/11/14 01:41:51;;;;;;;;;4.50;3.00;;;;;14.78;84.46;100798.59;5062931;28;45395;-65
2023/11/14 01:44:16;;;;;;;;;3.25;2.00;;;;;14.81;84.28;100797.56;5065813;28;47852;-65
2023/11/14 01:46:41;;;;;;;;;8.25;2.75;;;;;14.82;84.41;100805.56;5059817;28;45337;-65
2023/11/14 01:49:07;;;;;;;;;3.00;1.50;;;;;14.81;84.23;100798.44;5068587;28;45366;-65
2023/11/14 01:51:33;;;;;;;;;1.25;1.00;;;;;14.82;84.60;100799.31;5066596;27;45426;-65
2023/11/14 01:53:59;;;;;;;;;2.00;2.00;;;;;14.86;84.58;100803.59;5070807;27;45402;-65
2023/11/14 01:56:26;;;;;;;;;2.00;2.00;;;;;14.87;84.41;100799.06;5062365;27;45506;-65
2023/11/14 01:58:52;;;;;;;;;3.00;2.00;;;;;14.80;84.40;100799.41;5073098;27;45351;-65
2023/11/14 02:01:19;;;;;;;;;5.00;2.00;;;;;14.86;84.24;100808.97;5071718;28;45315;-65
2023/11/14 02:03:45;;;;;;;;;2.75;1.00;;;;;14.87;84.31;100785.63;5059600;28;46065;-65
2023/11/14 02:06:10;;;;;;;;;4.25;2.00;;;;;14.83;84.43;100782.22;5058715;28;67270;-65
2023/11/14 02:08:35;;;;;;;;;5.50;3.75;;;;;14.85;84.40;100800.97;5061832;28;45820;-65
2023/11/14 02:11:01;;;;;;;;;4.50;1.00;;;;;14.88;84.72;100801.69;5061583;28;45497;-65
2023/11/14 02:13:27;;;;;;;;;1.00;1.00;;;;;14.88;84.15;100804.38;5064495;28;66176;-65
2023/11/14 02:15:52;;;;;;;;;4.50;2.25;;;;;14.91;84.58;100806.06;5072679;28;45497;-65
2023/11/14 02:18:18;;;;;;;;;4.25;1.25;;;;;14.89;84.45;100799.91;5059075;28;45341;-65
2023/11/14 02:20:45;;;;;;;;;3.50;2.25;;;;;14.89;84.65;100798.06;5072700;28;45341;-65
2023/11/14 02:23:11;;;;;;;;;2.00;1.00;;;;;14.88;84.60;100796.31;5078194;27;45328;-65
2023/11/14 02:25:37;;;;;;;;;4.75;3.50;;;;;14.89;84.72;100799.91;5064302;27;45465;-65
2023/11/14 02:28:02;;;;;;;;;5.00;3.00;;;;;14.87;84.48;100807.13;5064682;28;45347;-65
2023/11/14 02:30:28;;;;;;;;;6.00;1.00;;;;;14.86;84.68;100792.84;5077847;27;46051;-65
2023/11/14 02:32:53;;;;;;;;;2.75;2.00;;;;;14.90;84.99;100793.56;5070153;28;46142;-65
2023/11/14 02:35:18;;;;;;;;;5.50;1.00;;;;;14.91;84.67;100789.94;5058093;28;72013;-65
2023/11/14 02:37:45;;;;;;;;;3.75;2.50;;;;;14.92;84.86;100791.69;5059070;28;60162;-65
2023/11/14 02:40:12;;;;;;;;;2.25;1.25;;;;;14.90;84.76;100790.88;5079247;27;45436;-65
2023/11/14 02:42:38;;;;;;;;;1.50;1.00;;;;;14.87;84.80;100791.91;5076683;27;45477;-65
2023/11/14 02:45:06;;;;;;;;;3.75;2.50;;;;;14.88;84.72;100792.75;5071984;28;45383;-65
2023/11/14 02:47:31;;;;;;;;;5.00;3.00;;;;;14.85;84.61;100791.13;5068885;28;45377;-65
2023/11/14 02:50:31;;;;;;;;;2.00;2.00;;;;;14.89;84.87;100800.75;5078094;28;68943;-65
2023/11/14 02:52:59;;;;;;;;;4.00;2.00;;;;;14.76;85.01;100784.34;5072660;27;45611;-65
2023/11/14 02:55:24;;;;;;;;;3.50;1.00;;;;;14.89;85.16;100803.44;5075372;27;45328;-65
2023/11/14 02:57:50;;;;;;;;;6.00;2.50;;;;;14.89;85.03;100805.25;5067724;27;45573;-65
2023/11/14 03:00:15;;;;;;;;;8.00;2.50;;;;;14.89;84.88;100805.25;5064487;28;45299;-65
2023/11/14 03:02:44;;;;;;;;;2.25;2.00;;;;;14.89;84.86;100805.25;5060755;27;46060;-65
2023/11/14 03:05:09;;;;;;;;;2.50;2.00;;;;;14.87;84.84;100794.59;5060465;28;45368;-65
2023/11/14 03:07:35;;;;;;;;;4.75;2.00;;;;;14.83;84.77;100787.59;5065791;27;45728;-65
2023/11/14 03:10:02;;;;;;;;;6.25;1.00;;;;;14.77;85.08;100787.94;5058714;28;45497;-65
2023/11/14 03:12:27;;;;;;;;;4.25;1.75;;;;;14.82;85.20;100799.31;5069044;28;45743;-65
2023/11/14 03:14:52;;;;;;;;;1.00;1.00;;;;;14.81;85.49;100792.19;5070962;28;45479;-65
2023/11/14 03:17:18;;;;;;;;;4.75;2.25;;;;;14.82;85.64;100796.63;5071978;27;45421;-65
2023/11/14 03:19:43;;;;;;;;;4.00;1.50;;;;;14.80;85.36;100799.41;5059035;27;45477;-65
2023/11/14 03:22:08;;;;;;;;;2.75;2.00;;;;;14.79;85.53;100794.94;5066206;28;45284;-65
2023/11/14 03:24:37;;;;;;;;;7.00;1.00;;;;;14.78;85.10;100789.66;5058484;28;52590;-65
2023/11/14 03:27:02;;;;;;;;;2.00;1.50;;;;;14.78;85.47;100800.41;5065796;28;45263;-65
2023/11/14 03:29:27;;;;;;;;;2.25;2.00;;;;;14.82;85.42;100804.69;5057565;28;65647;-65
2023/11/14 03:31:53;;;;;;;;;5.00;2.50;;;;;14.80;85.50;100793.13;5072012;28;74157;-65
2023/11/14 03:34:18;;;;;;;;;3.25;2.50;;;;;14.74;85.31;100797.00;5061027;28;71873;-65
2023/11/14 03:36:43;;;;;;;;;5.25;2.00;;;;;14.72;85.50;100798.03;5062188;28;68183;-65
2023/11/14 03:39:08;;;;;;;;;4.00;3.00;;;;;14.79;85.42;100789.59;5061092;28;67154;-65
2023/11/14 03:41:34;;;;;;;;;4.50;2.00;;;;;14.80;85.36;100796.72;5061535;28;71405;-65
2023/11/14 03:43:59;;;;;;;;;3.25;2.00;;;;;14.78;85.62;100787.84;5081286;27;45338;-65
2023/11/14 03:46:24;;;;;;;;;2.00;1.75;;;;;14.79;85.61;100781.53;5068341;28;54556;-65
2023/11/14 03:48:50;;;;;;;;;4.50;2.00;;;;;14.78;85.37;100762.78;5073942;28;73300;-65
2023/11/14 03:51:15;;;;;;;;;5.50;2.00;;;;;14.77;85.65;100771.81;5060680;28;75413;-65
2023/11/14 03:53:44;;;;;;;;;6.25;2.00;;;;;14.80;85.71;100766.25;5073582;28;45381;-65
2023/11/14 03:56:09;;;;;;;;;3.00;1.50;;;;;14.82;85.47;100762.56;5078140;27;45569;-65
2023/11/14 03:58:37;;;;;;;;;2.25;2.00;;;;;14.82;85.45;100759.88;5074143;27;45300;-65
2023/11/14 04:01:03;;;;;;;;;6.25;2.25;;;;;14.81;85.76;100759.94;5073912;28;45397;-65
2023/11/14 04:03:28;;;;;;;;;2.75;1.75;;;;;14.79;85.92;100768.09;5061619;27;67850;-65
2023/11/14 04:05:53;;;;;;;;;3.00;2.00;;;;;14.80;85.72;100759.09;5067351;28;69063;-65
2023/11/14 04:08:19;;;;;;;;;6.75;3.00;;;;;14.79;85.64;100746.59;5062221;27;45381;-65
2023/11/14 04:10:44;;;;;;;;;4.75;2.00;;;;;14.77;86.01;100756.56;5060436;28;75733;-65
2023/11/14 04:13:09;;;;;;;;;2.00;1.00;;;;;14.80;86.10;100766.25;5064979;28;60493;-65
2023/11/14 04:15:34;;;;;;;;;2.50;1.00;;;;;14.80;86.00;100758.19;5068340;28;63441;-65
2023/11/14 04:18:00;;;;;;;;;2.75;1.75;;;;;14.81;85.88;100765.31;5060589;28;48189;-65
2023/11/14 04:20:25;;;;;;;;;4.00;2.75;;;;;14.82;85.98;100769.75;5061333;28;49740;-65
2023/11/14 04:22:51;;;;;;;;;2.25;2.00;;;;;14.85;85.92;100780.38;5069981;28;45341;-65
2023/11/14 04:25:16;;;;;;;;;6.75;2.00;;;;;14.82;85.87;100775.13;5062469;28;45609;-65
2023/11/14 04:27:41;;;;;;;;;2.00;1.75;;;;;14.87;86.06;100796.38;5067802;27;45520;-65
2023/11/14 04:30:10;;;;;;;;;3.25;1.00;;;;;14.87;85.75;100802.66;5069115;27;45647;-65
2023/11/14 04:32:35;;;;;;;;;7.50;2.00;;;;;14.82;85.99;100785.88;5078437;27;46040;-65
2023/11/14 04:35:01;;;;;;;;;3.50;2.00;;;;;14.80;85.93;100795.81;5079640;28;45463;-65
2023/11/14 04:37:26;;;;;;;;;2.50;1.00;;;;;14.81;86.21;100798.44;5073427;27;45420;-65
2023/11/14 04:39:51;;;;;;;;;2.00;1.00;;;;;14.84;86.03;100802.81;5060379;28;65998;-65
2023/11/14 04:42:17;;;;;;;;;2.00;2.00;;;;;14.84;86.22;100815.38;5066469;28;45349;-65
2023/11/14 04:44:42;;;;;;;;;5.75;2.75;;;;;14.82;86.11;100797.50;5060044;28;63964;-65
2023/11/14 04:47:07;;;;;;;;;7.00;2.00;;;;;14.82;86.19;100808.25;5069344;28;63138;-65
2023/11/14 04:49:33;;;;;;;;;2.75;2.00;;;;;14.79;86.11;100808.38;5060551;28;45972;-65
2023/11/14 04:51:58;;;;;;;;;3.00;2.00;;;;;14.80;86.29;100825.38;5061026;28;45780;-65
2023/11/14 04:54:23;;;;;;;;;5.00;2.00;;;;;14.77;86.42;100831.78;5074271;28;45378;-65
2023/11/14 04:56:49;;;;;;;;;5.00;2.00;;;;;14.76;86.29;100845.28;5066092;28;49958;-65
2023/11/14 04:59:14;;;;;;;;;5.75;2.50;;;;;14.69;86.53;100823.22;5068911;28;74485;-65
2023/11/14 05:01:39;;;;;;;;;3.25;2.00;;;;;14.71;86.69;100829.38;5073406;28;60405;-65
2023/11/14 05:04:05;;;;;;;;;3.00;1.25;;;;;14.70;86.50;100824.09;5069164;28;69369;-65
2023/11/14 05:06:33;;;;;;;;;2.75;2.75;;;;;14.68;86.62;100794.59;5065672;28;60031;-65
2023/11/14 05:08:58;;;;;;;;;2.00;2.00;;;;;14.66;87.12;100788.44;5068247;28;72711;-65
2023/11/14 05:11:23;;;;;;;;;4.00;2.50;;;;;14.67;86.93;100762.44;5060446;28;45390;-65
2023/11/14 05:13:49;;;;;;;;;3.25;3.00;;;;;14.66;86.98;100747.28;5060189;28;45375;-65
2023/11/14 05:16:15;;;;;;;;;2.25;2.00;;;;;14.63;87.15;100746.50;5063097;28;45409;-65
2023/11/14 05:18:41;;;;;;;;;6.75;3.50;;;;;14.67;87.14;100766.00;5060442;28;46068;-65
2023/11/14 05:21:07;;;;;;;;;5.75;3.25;;;;;14.65;87.19;100784.03;5060217;28;45379;-65
2023/11/14 05:23:32;;;;;;;;;4.50;2.00;;;;;14.64;86.91;100761.66;5080447;28;45309;-65
2023/11/14 05:25:57;;;;;;;;;4.00;2.00;;;;;14.61;87.04;100739.44;5064541;27;46681;-65
2023/11/14 05:28:23;;;;;;;;;4.50;3.00;;;;;14.59;87.46;100733.28;5060066;28;45346;-65
2023/11/14 05:30:48;;;;;;;;;3.00;3.00;;;;;14.58;87.60;100723.44;5066825;28;45220;-65
2023/11/14 05:33:14;;;;;;;;;5.00;3.00;;;;;14.58;87.62;100739.56;5068986;27;45438;-65
2023/11/14 05:35:39;;;;;;;;;4.25;3.00;;;;;14.60;87.56;100749.31;5062486;28;45540;-65
2023/11/14 05:38:05;;;;;;;;;4.00;3.25;;;;;14.58;87.65;100747.63;5068445;27;46146;-65
2023/11/14 05:40:30;;;;;;;;;5.25;3.75;;;;;14.61;87.90;100766.31;5064609;28;45549;-65
2023/11/14 05:42:56;;;;;;;;;5.00;4.00;;;;;14.60;87.82;100783.34;5074013;27;45370;-65
2023/11/14 05:45:21;;;;;;;;;3.00;2.25;;;;;14.63;87.95;100767.09;5077022;28;50019;-65
2023/11/14 05:47:46;;;;;;;;;3.00;2.00;;;;;14.64;87.72;100744.66;5059628;28;45440;-65
2023/11/14 05:50:12;;;;;;;;;6.50;4.00;;;;;14.59;87.82;100726.09;5059642;28;45383;-65
2023/11/14 05:52:37;;;;;;;;;4.00;2.50;;;;;14.60;87.92;100743.06;5059461;28;45362;-65
2023/11/14 05:55:03;;;;;;;;;4.00;2.50;;;;;14.62;87.81;100757.31;5061682;27;45365;-65
2023/11/14 05:57:28;;;;;;;;;3.00;2.00;;;;;14.60;87.90;100761.88;5063278;28;47091;-66
2023/11/14 05:59:55;;;;;;;;;2.50;2.00;;;;;14.62;87.96;100786.88;5061151;28;72210;-65
2023/11/14 06:02:22;;;;;;;;;3.50;3.50;;;;;14.64;87.84;100766.16;5070395;27;45382;-65
2023/11/14 06:04:48;;;;;;;;;4.50;1.00;;;;;14.62;88.09;100755.47;5059647;28;45543;-65
2023/11/14 06:07:13;;;;;;;;;4.00;4.00;;;;;14.61;88.00;100761.78;5063305;28;45521;-65
2023/11/14 06:09:39;;;;;;;;;5.50;3.50;;;;;14.61;87.76;100729.56;5074500;28;50857;-65
2023/11/14 06:12:04;;;;;;;;;7.25;4.00;;;;;14.55;88.08;100727.16;5058021;28;68343;-65
2023/11/14 06:14:30;;;;;;;;;5.00;3.00;;;;;14.59;88.08;100723.41;5075211;28;45466;-65
2023/11/14 06:16:55;;;;;;;;;4.00;2.00;;;;;14.60;88.01;100729.63;5064524;28;75714;-65
2023/11/14 06:19:20;;;;;;;;;7.00;2.00;;;;;14.58;88.11;100718.97;5058334;28;73197;-65
2023/11/14 06:21:47;;;;;;;;;2.00;2.00;;;;;14.61;88.08;100729.56;5064787;28;45367;-65
2023/11/14 06:24:12;;;;;;;;;7.25;3.75;;;;;14.64;88.45;100731.25;5072901;27;45339;-65
2023/11/14 06:26:38;;;;;;;;;5.50;2.75;;;;;14.63;88.32;100725.00;5063920;28;46854;-65
2023/11/14 06:29:03;;;;;;;;;6.00;2.75;;;;;14.60;88.17;100726.94;5062600;28;67663;-65
2023/11/14 06:31:28;;;;;;;;;6.50;2.75;;;;;14.61;88.34;100737.63;5067247;28;45375;-65
2023/11/14 06:33:54;;;;;;;;;3.00;2.25;;;;;14.63;88.13;100740.22;5073459;28;65786;-65
2023/11/14 06:36:20;;;;;;;;;5.50;3.75;;;;;14.63;88.46;100742.91;5070585;28;65392;-65
2023/11/14 06:38:46;;;;;;;;;5.50;3.75;;;;;14.64;88.33;100750.91;5058669;28;45418;-65
2023/11/14 06:41:11;;;;;;;;;4.75;3.00;;;;;14.68;88.37;100756.13;5059303;28;45540;-65
2023/11/14 06:43:37;;;;;;;;;4.00;2.50;;;;;14.66;88.41;100768.78;5064442;28;45542;-71
2023/11/14 06:46:02;;;;;;;;;5.00;3.00;;;;;14.64;88.20;100769.72;5062079;28;45611;-69
2023/11/14 06:48:27;;;;;;;;;3.00;2.00;;;;;14.66;88.53;100756.19;5063143;27;45228;-69
2023/11/14 06:50:53;;;;;;;;;5.50;3.00;;;;;14.64;88.58;100732.09;5059293;28;45319;-68
2023/11/14 06:53:19;;;;;;;;;5.00;3.00;;;;;14.63;88.47;100725.00;5060044;28;66808;-68
2023/11/14 06:55:44;;;;;;;;;6.25;2.50;;;;;14.62;88.44;100722.38;5067656;27;45440;-68
2023/11/14 06:58:10;;;;;;;;;3.75;3.00;;;;;14.63;88.59;100716.06;5070198;27;45531;-68
2023/11/14 07:00:36;;;;;;;;;4.50;3.00;;;;;14.67;88.33;100720.34;5071762;27;45335;-68
2023/11/14 07:03:01;;;;;;;;;2.75;2.00;;;;;14.68;88.45;100721.19;5063848;27;45381;-68
2023/11/14 07:05:27;;;;;;;;;7.00;3.50;;;;;14.65;88.21;100711.50;5069879;28;45395;-68
2023/11/14 07:07:54;;;;;;;;;4.00;3.00;;;;;14.66;88.50;100725.78;5062170;28;45652;-69
2023/11/14 07:10:19;;;;;;;;;5.25;4.00;;;;;14.66;88.45;100729.34;5062582;28;45430;-68
2023/11/14 07:12:45;;;;;;;;;3.50;3.00;;;;;14.62;88.38;100757.31;5062190;28;45663;-67
2023/11/14 07:15:11;;;;;;;;;3.75;2.25;;;;;14.62;88.60;100760.00;5061986;28;45488;-67
2023/11/14 07:17:36;;;;;;;;;3.00;3.00;;;;;14.67;88.48;100762.44;5066356;28;45518;-69
2023/11/14 07:20:05;;;;;;;;;3.00;2.50;;;;;14.68;88.52;100751.63;5074237;27;45366;-69
2023/11/14 07:22:32;;;;;;;;;5.50;3.75;;;;;14.69;88.76;100744.44;5075553;27;45347;-69
2023/11/14 07:24:59;;;;;;;;;3.25;3.25;;;;;14.73;88.66;100743.34;5062022;28;45418;-69
2023/11/14 07:27:24;;;;;;;;;7.00;4.25;;;;;14.73;88.74;100744.19;5061697;28;45291;-70
2023/11/14 07:29:51;;;;;;;;;2.50;2.25;;;;;14.71;88.54;100750.59;5062161;28;45280;-69
2023/11/14 07:32:16;;;;;;;;;3.00;3.00;;;;;14.70;88.45;100741.69;5078581;28;45493;-69
2023/11/14 07:34:42;;;;;;;;;2.00;2.00;;;;;14.70;88.60;100749.75;5077966;27;46639;-69
2023/11/14 07:37:07;;;;;;;;;3.75;2.75;;;;;14.71;88.79;100738.03;5065288;28;45603;-69
2023/11/14 07:39:33;;;;;;;;;4.75;3.50;;;;;14.72;88.69;100736.25;5071496;28;69430;-69
2023/11/14 07:41:58;;;;;;;;;2.00;2.00;;;;;14.71;88.85;100734.50;5072523;28;73084;-69
2023/11/14 07:44:23;;;;;;;;;2.75;2.75;;;;;14.75;89.03;100747.69;5079373;27;46483;-71
2023/11/14 07:46:49;;;;;;;;;4.00;3.50;;;;;14.74;88.91;100734.34;5062140;28;58335;-67
2023/11/14 07:49:14;;;;;;;;;4.00;2.00;;;;;14.72;88.80;100742.47;5063305;28;45397;-68
2023/11/14 07:51:39;;;;;;;;;2.50;2.00;;;;;14.72;89.11;100742.47;5073424;28;68770;-68
2023/11/14 07:54:05;;;;;;;;;2.25;2.25;;;;;14.74;88.90;100745.09;5069822;27;57649;-66
2023/11/14 07:56:30;;;;;;;;;4.75;2.25;;;;;14.76;88.99;100741.34;5069844;28;46407;-66
2023/11/14 07:58:55;;;;;;;;;4.25;2.00;;;;;14.80;89.13;100736.69;5061994;28;45338;-66
2023/11/14 08:01:21;;;;;;;;;2.75;2.00;;;;;14.83;89.02;100747.28;5076339;27;45446;-66
2023/11/14 08:03:49;;;;;;;;;5.00;2.75;;;;;14.79;88.95;100735.84;5063822;27;45433;-66
2023/11/14 08:06:14;;;;;;;;;3.25;3.00;;;;;14.81;88.98;100739.31;5068960;27;45334;-65
2023/11/14 08:08:39;;;;;;;;;2.25;2.25;;;;;14.76;89.04;100737.81;5068887;27;45438;-66
2023/11/14 08:11:05;;;;;;;;;2.00;1.00;;;;;14.77;89.17;100727.00;5075650;27;45247;-66
2023/11/14 08:13:31;;;;;;;;;8.25;3.00;;;;;14.76;89.33;100757.47;5069241;28;46009;-66
2023/11/14 08:15:56;;;;;;;;;4.25;2.75;;;;;14.73;89.40;100768.38;5076778;27;45493;-66
2023/11/14 08:18:22;;;;;;;;;2.00;2.00;;;;;14.76;89.45;100778.13;5075853;27;45293;-65
2023/11/14 08:20:47;;;;;;;;;1.25;1.25;;;;;14.73;89.67;100776.44;5079343;27;45625;-65
2023/11/14 08:23:12;;;;;;;;;1.75;1.00;;;;;14.77;89.40;100775.34;5079376;27;75728;-66
2023/11/14 08:25:38;;;;;;;;;3.00;1.25;;;;;14.77;89.71;100761.06;5072527;27;45467;-66
2023/11/14 08:28:04;;;;;;;;;4.75;1.75;;;;;14.85;89.50;100771.41;5073078;28;45260;-66
2023/11/14 08:30:29;;;;;;;;;2.00;2.00;;;;;14.84;89.45;100770.56;5069454;27;45713;-66
2023/11/14 08:32:55;;;;;;;;;2.50;2.50;;;;;14.84;89.77;100767.88;5060649;27;45481;-66
2023/11/14 08:35:21;;;;;;;;;2.75;2.00;;;;;14.76;89.97;100765.53;5090046;27;45573;-66
2023/11/14 08:37:48;;;;;;;;;2.00;1.75;;;;;14.85;89.96;100777.69;5073052;28;45470;-66
2023/11/14 08:40:13;;;;;;;;;3.50;2.50;;;;;14.82;89.89;100735.69;5073259;27;46932;-66
2023/11/14 08:42:38;;;;;;;;;2.75;1.75;;;;;14.84;90.42;100730.25;5076626;27;46390;-66
2023/11/14 08:45:04;;;;;;;;;3.25;1.75;;;;;14.84;90.44;100718.63;5078905;27;45361;-66
2023/11/14 08:47:30;;;;;;;;;1.00;1.00;;;;;14.86;90.36;100722.09;5077925;27;45349;-66
2023/11/14 08:49:55;;;;;;;;;1.75;1.75;;;;;14.84;90.63;100713.25;5073283;27;68718;-66
2023/11/14 08:52:22;;;;;;;;;3.00;2.00;;;;;14.85;90.51;100694.38;5080139;28;45356;-66
2023/11/14 08:54:48;;;;;;;;;4.50;0.75;;;;;14.85;90.64;100690.78;5067337;27;45514;-66
2023/11/14 08:57:13;;;;;;;;;3.25;1.75;;;;;14.87;90.95;100678.13;5068034;27;46118;-66
2023/11/14 08:59:38;;;;;;;;;5.00;3.25;;;;;14.86;90.96;100679.09;5072224;27;45394;-66
2023/11/14 09:02:04;;;;;;;;;4.00;1.00;;;;;14.87;90.98;100667.38;5069741;27;75652;-66
2023/11/14 09:04:30;;;;;;;;;3.25;3.25;;;;;14.89;91.22;100671.75;5068196;27;73562;-66
2023/11/14 09:06:55;;;;;;;;;3.50;1.25;;;;;14.91;91.45;100671.69;5079296;28;45616;-66
2023/11/14 09:09:21;;;;;;;;;2.00;2.00;;;;;14.92;91.34;100668.06;5062319;27;45398;-65
2023/11/14 09:11:47;;;;;;;;;4.50;3.00;;;;;14.93;91.27;100657.19;5079135;27;45442;-66
2023/11/14 09:14:13;;;;;;;;;3.25;3.00;;;;;14.94;91.21;100655.41;5070042;27;45598;-66
2023/11/14 09:16:38;;;;;;;;;3.75;2.25;;;;;14.95;91.25;100657.13;5075176;27;45391;-65
2023/11/14 09:19:04;;;;;;;;;3.00;1.00;;;;;14.97;91.12;100649.88;5072333;27;73131;-66
2023/11/14 09:21:30;;;;;;;;;2.00;2.00;;;;;14.95;91.33;100665.19;5074929;28;46491;-65
2023/11/14 09:23:56;;;;;;;;;4.00;1.25;;;;;14.97;91.11;100663.31;5079228;27;45333;-66
2023/11/14 09:26:23;;;;;;;;;1.25;1.00;;;;;15.01;91.06;100672.94;5061021;28;45313;-66
2023/11/14 09:28:49;;;;;;;;;1.75;1.00;;;;;15.01;91.26;100668.41;5066298;27;45447;-66
2023/11/14 09:31:15;;;;;;;;;4.50;1.75;;;;;15.02;91.14;100674.69;5071652;27;46088;-66
2023/11/14 09:33:42;;;;;;;;;5.50;2.50;;;;;15.01;91.11;100672.94;5059780;28;45340;-66
2023/11/14 09:36:09;;;;;;;;;3.50;3.00;;;;;15.01;91.27;100687.22;5065734;28;45576;-66
2023/11/14 09:38:34;;;;;;;;;3.00;1.00;;;;;15.02;91.06;100677.38;5062476;28;45519;-66
2023/11/14 09:41:02;;;;;;;;;2.00;1.50;;;;;15.00;91.11;100655.06;5072216;27;46525;-66
2023/11/14 09:43:28;;;;;;;;;4.25;3.50;;;;;15.05;91.37;100644.06;5076089;28;45371;-66
2023/11/14 09:45:54;;;;;;;;;3.00;1.00;;;;;15.06;90.97;100652.06;5086441;27;45468;-66
2023/11/14 09:48:20;;;;;;;;;2.00;2.00;;;;;15.07;90.96;100667.25;5061496;27;45382;-66
2023/11/14 09:50:45;;;;;;;;;2.00;1.00;;;;;15.06;90.91;100660.13;5076171;27;45948;-66
2023/11/14 09:53:12;;;;;;;;;2.00;1.00;;;;;15.12;91.14;100653.56;5068120;27;45453;-66
2023/11/14 09:55:38;;;;;;;;;4.25;2.75;;;;;15.10;91.14;100639.31;5074013;27;45395;-66
2023/11/14 09:58:05;;;;;;;;;3.25;2.50;;;;;15.12;91.28;100645.50;5071582;27;45467;-66
2023/11/14 10:00:33;;;;;;;;;4.00;1.00;;;;;15.08;90.89;100644.78;5073490;27;45367;-66
2023/11/14 10:02:59;;;;;;;;;2.50;1.00;;;;;15.09;91.14;100651.91;5067693;27;45448;-66
2023/11/14 10:05:24;;;;;;;;;2.75;1.50;;;;;15.09;91.19;100634.91;5072175;27;45468;-66
2023/11/14 10:07:50;;;;;;;;;2.25;1.00;;;;;15.08;91.06;100643.91;5067488;27;45559;-66
2023/11/14 10:10:16;;;;;;;;;4.00;1.50;;;;;15.12;91.55;100643.69;5065964;27;45638;-66
2023/11/14 10:12:42;;;;;;;;;2.00;2.00;;;;;15.09;91.45;100648.34;5070135;27;45381;-65
2023/11/14 10:15:08;;;;;;;;;2.25;1.00;;;;;15.10;91.29;100645.59;5067545;27;46818;-66
2023/11/14 10:17:43;;;;;;;;;2.00;2.00;;;;;15.14;91.50;100647.16;5067397;28;45418;-66
2023/11/14 10:20:10;;;;;;;;;2.25;1.25;;;;;15.14;91.60;100648.97;5062043;27;46102;-66
2023/11/14 10:22:45;;;;;;;;;3.75;3.00;;;;;15.10;91.96;100642.91;5070454;28;45348;-66
2023/11/14 10:25:23;;;;;;;;;3.00;2.00;;;;;15.17;91.66;100648.81;5066099;27;45442;-66
2023/11/14 10:27:59;;;;;;;;;6.00;2.00;;;;;15.18;91.54;100650.53;5076519;27;45452;-66
2023/11/14 10:30:26;;;;;;;;;2.25;2.25;;;;;15.09;91.46;100625.00;5072536;27;45430;-66
2023/11/14 10:32:55;;;;;;;;;1.50;1.25;;;;;15.16;91.48;100636.31;5073584;27;45396;-66
2023/11/14 10:35:21;;;;;;;;;2.00;2.00;;;;;15.15;91.40;100639.94;5072177;27;45350;-66
2023/11/14 10:37:46;;;;;;;;;1.00;1.00;;;;;15.15;91.67;100646.22;5073057;27;45473;-66
2023/11/14 10:40:12;;;;;;;;;2.00;1.00;;;;;15.11;91.28;100633.00;5081205;27;46234;-66
2023/11/14 10:42:37;;;;;;;;;3.75;3.00;;;;;15.14;91.40;100631.00;5073641;27;45364;-66
2023/11/14 10:45:08;;;;;;;;;1.75;1.75;;;;;15.14;90.82;100622.94;5073740;27;45886;-66
2023/11/14 10:47:40;;;;;;;;;1.00;1.00;;;;;15.14;90.45;100619.41;5059171;28;45509;-66
2023/11/14 10:50:23;;;;;;;;;3.00;1.00;;;;;15.12;90.62;100622.16;5069258;27;45439;-66
2023/11/14 10:52:51;;;;;;;;;3.00;2.00;;;;;15.12;90.53;100637.44;5061414;27;45421;-65
2023/11/14 10:55:17;;;;;;;;;2.50;1.00;;;;;15.12;90.58;100632.06;5059772;28;45573;-66
2023/11/14 10:57:42;;;;;;;;;3.50;1.00;;;;;15.16;90.71;100622.88;5073273;27;45377;-66
2023/11/14 11:00:10;;;;;;;;;1.25;1.25;;;;;15.18;90.73;100620.97;5089711;27;45407;-66
2023/11/14 11:02:39;;;;;;;;;2.75;1.00;;;;;15.19;91.11;100620.88;5060263;27;45521;-66
2023/11/14 11:05:05;;;;;;;;;5.00;2.00;;;;;15.19;91.28;100620.03;5069147;27;45476;-66
2023/11/14 11:07:30;;;;;;;;;7.50;2.00;;;;;15.22;91.10;100617.16;5067562;27;45502;-66
2023/11/14 11:09:56;;;;;;;;;4.00;2.00;;;;;15.18;91.33;100607.50;5058177;28;53619;-66
2023/11/14 11:12:24;;;;;;;;;3.00;3.00;;;;;15.14;91.66;100600.56;5058209;28;45454;-66
2023/11/14 11:14:50;;;;;;;;;2.25;2.25;;;;;15.16;91.80;100607.59;5076272;27;45677;-65
2023/11/14 11:17:45;;;;;;;;;3.00;2.00;;;;;15.18;91.80;100594.97;5070434;27;45565;-66
2023/11/14 11:20:24;;;;;;;;;2.75;1.75;;;;;15.22;91.87;100589.38;5060917;27;45388;-65